Weather



East Midlands Airport
EAST MIDLANDS
Metar
EGNX 210120Z 23008KT 9999 FEW008 07/07 Q1031

01:20 UTC

Wind: 230° 8kt

Visibility: 9999 m

Sky: FEW 800 ft

Temp: 7 deg C / 44.6 deg F

Dewpoint: 7 deg C / 44.6 deg F

Pressure: 1031 hPa

Latest infrared satellite image